Terminal Aerodrome Forecast
Issued by NWS Hastings, NE

Home | Current Version | Previous Version | Text Only | Print | Product List | Glossary On
Versions: 1 2 3 4 5 6 7 8 9 10 11 12 13
000
FTUS45 KGID 071145 CCA
TAFEAR
TAF COR
KEAR 071145Z 0712/0812 35010KT 4SM -SN OVC060
     FM071400 34012KT P6SM BKN070
     FM080100 32011KT P6SM SCT200
      AMD LTD TO CLD VIS AND WIND=

USA.gov is the U.S. government's official web portal to all federal, state and local government web resources and services.